sensor_id;sensor_type;location;lat;lon;timestamp;temperature;humidity
29203;DHT22;16245;51.170;4.884;2023-02-15T00:01:20;2.00;99.90
29203;DHT22;16245;51.170;4.884;2023-02-15T00:03:48;2.00;99.90
29203;DHT22;16245;51.170;4.884;2023-02-15T00:06:14;1.90;99.90
29203;DHT22;16245;51.170;4.884;2023-02-15T00:08:40;1.90;99.90
29203;DHT22;16245;51.170;4.884;2023-02-15T00:11:10;1.80;99.90
29203;DHT22;16245;51.170;4.884;2023-02-15T00:13:37;1.80;99.90
29203;DHT22;16245;51.170;4.884;2023-02-15T00:16:06;1.80;99.90
29203;DHT22;16245;51.170;4.884;2023-02-15T00:18:32;1.80;99.90
29203;DHT22;16245;51.170;4.884;2023-02-15T00:20:58;1.80;99.90
29203;DHT22;16245;51.170;4.884;2023-02-15T00:23:28;1.80;99.90
29203;DHT22;16245;51.170;4.884;2023-02-15T00:26:12;1.70;99.90
29203;DHT22;16245;51.170;4.884;2023-02-15T00:28:38;1.70;99.90
29203;DHT22;16245;51.170;4.884;2023-02-15T00:31:09;1.60;99.90
29203;DHT22;16245;51.170;4.884;2023-02-15T00:33:36;1.60;99.90
29203;DHT22;16245;51.170;4.884;2023-02-15T00:36:03;1.60;99.90
29203;DHT22;16245;51.170;4.884;2023-02-15T00:38:30;1.60;99.90
29203;DHT22;16245;51.170;4.884;2023-02-15T00:41:01;1.50;99.90
29203;DHT22;16245;51.170;4.884;2023-02-15T00:43:28;1.60;99.90
29203;DHT22;16245;51.170;4.884;2023-02-15T00:45:54;1.50;99.90
29203;DHT22;16245;51.170;4.884;2023-02-15T00:48:20;1.50;99.90
29203;DHT22;16245;51.170;4.884;2023-02-15T00:50:52;1.50;99.90
29203;DHT22;16245;51.170;4.884;2023-02-15T00:53:18;1.50;99.90
29203;DHT22;16245;51.170;4.884;2023-02-15T00:55:43;1.40;99.90
29203;DHT22;16245;51.170;4.884;2023-02-15T00:58:10;1.50;99.90
29203;DHT22;16245;51.170;4.884;2023-02-15T01:00:37;1.40;99.90
29203;DHT22;16245;51.170;4.884;2023-02-15T01:03:04;1.40;99.90
29203;DHT22;16245;51.170;4.884;2023-02-15T01:05:30;1.30;99.90
29203;DHT22;16245;51.170;4.884;2023-02-15T01:07:56;1.30;99.90
29203;DHT22;16245;51.170;4.884;2023-02-15T01:10:22;1.40;99.90
29203;DHT22;16245;51.170;4.884;2023-02-15T01:12:50;1.40;99.90
29203;DHT22;16245;51.170;4.884;2023-02-15T01:15:16;1.30;99.90
29203;DHT22;16245;51.170;4.884;2023-02-15T01:17:41;1.20;99.90
29203;DHT22;16245;51.170;4.884;2023-02-15T01:20:09;1.20;99.90
29203;DHT22;16245;51.170;4.884;2023-02-15T01:22:35;1.20;99.90
29203;DHT22;16245;51.170;4.884;2023-02-15T01:25:01;1.20;99.90
29203;DHT22;16245;51.170;4.884;2023-02-15T01:27:26;1.20;99.90
29203;DHT22;16245;51.170;4.884;2023-02-15T01:29:55;1.30;99.90
29203;DHT22;16245;51.170;4.884;2023-02-15T01:32:21;1.30;99.90
29203;DHT22;16245;51.170;4.884;2023-02-15T01:34:47;1.20;99.90
29203;DHT22;16245;51.170;4.884;2023-02-15T01:37:12;1.10;99.90
29203;DHT22;16245;51.170;4.884;2023-02-15T01:39:38;1.20;99.90
29203;DHT22;16245;51.170;4.884;2023-02-15T01:42:03;1.20;99.90
29203;DHT22;16245;51.170;4.884;2023-02-15T01:44:52;1.20;99.90
29203;DHT22;16245;51.170;4.884;2023-02-15T01:47:43;1.20;99.90
29203;DHT22;16245;51.170;4.884;2023-02-15T01:52:51;1.10;99.90
29203;DHT22;16245;51.170;4.884;2023-02-15T01:55:18;1.10;99.90
29203;DHT22;16245;51.170;4.884;2023-02-15T01:57:46;1.10;99.90
29203;DHT22;16245;51.170;4.884;2023-02-15T02:00:13;1.10;99.90
29203;DHT22;16245;51.170;4.884;2023-02-15T02:02:41;1.10;99.90
29203;DHT22;16245;51.170;4.884;2023-02-15T02:05:07;1.20;99.90
29203;DHT22;16245;51.170;4.884;2023-02-15T02:07:36;1.00;99.90
29203;DHT22;16245;51.170;4.884;2023-02-15T02:10:06;1.00;99.90
29203;DHT22;16245;51.170;4.884;2023-02-15T02:12:33;1.00;99.90
29203;DHT22;16245;51.170;4.884;2023-02-15T02:15:00;1.00;99.90
29203;DHT22;16245;51.170;4.884;2023-02-15T02:34:41;0.80;99.90
29203;DHT22;16245;51.170;4.884;2023-02-15T02:37:32;0.80;99.90
29203;DHT22;16245;51.170;4.884;2023-02-15T02:42:44;0.80;99.90
29203;DHT22;16245;51.170;4.884;2023-02-15T02:47:56;0.80;99.90
29203;DHT22;16245;51.170;4.884;2023-02-15T02:50:27;0.80;99.90
29203;DHT22;16245;51.170;4.884;2023-02-15T02:52:55;0.80;99.90
29203;DHT22;16245;51.170;4.884;2023-02-15T02:55:46;0.70;99.90
29203;DHT22;16245;51.170;4.884;2023-02-15T03:00:57;0.60;99.90
29203;DHT22;16245;51.170;4.884;2023-02-15T03:03:56;0.50;99.90
29203;DHT22;16245;51.170;4.884;2023-02-15T03:06:51;0.50;99.90
29203;DHT22;16245;51.170;4.884;2023-02-15T03:09:25;0.50;99.90
29203;DHT22;16245;51.170;4.884;2023-02-15T03:12:08;0.50;99.90
29203;DHT22;16245;51.170;4.884;2023-02-15T03:14:35;0.50;99.90
29203;DHT22;16245;51.170;4.884;2023-02-15T03:17:02;0.50;99.90
29203;DHT22;16245;51.170;4.884;2023-02-15T03:19:35;0.50;99.90
29203;DHT22;16245;51.170;4.884;2023-02-15T03:22:13;0.50;99.90
29203;DHT22;16245;51.170;4.884;2023-02-15T03:24:46;0.50;99.90
29203;DHT22;16245;51.170;4.884;2023-02-15T03:27:26;0.50;99.90
29203;DHT22;16245;51.170;4.884;2023-02-15T03:29:55;0.50;99.90
29203;DHT22;16245;51.170;4.884;2023-02-15T03:32:23;0.50;99.90
29203;DHT22;16245;51.170;4.884;2023-02-15T03:34:51;0.50;99.90
29203;DHT22;16245;51.170;4.884;2023-02-15T03:37:34;0.40;99.90
29203;DHT22;16245;51.170;4.884;2023-02-15T03:43:24;0.30;99.90
29203;DHT22;16245;51.170;4.884;2023-02-15T03:45:57;0.30;99.90
29203;DHT22;16245;51.170;4.884;2023-02-15T03:48:30;0.30;99.90
29203;DHT22;16245;51.170;4.884;2023-02-15T03:51:04;0.30;99.90
29203;DHT22;16245;51.170;4.884;2023-02-15T03:53:50;0.30;99.90
29203;DHT22;16245;51.170;4.884;2023-02-15T03:56:15;0.30;99.90
29203;DHT22;16245;51.170;4.884;2023-02-15T03:58:41;0.30;99.90
29203;DHT22;16245;51.170;4.884;2023-02-15T04:01:32;0.30;99.90
29203;DHT22;16245;51.170;4.884;2023-02-15T04:07:00;0.40;99.90
29203;DHT22;16245;51.170;4.884;2023-02-15T04:09:26;0.30;99.90
29203;DHT22;16245;51.170;4.884;2023-02-15T04:12:10;0.30;99.90
29203;DHT22;16245;51.170;4.884;2023-02-15T04:14:36;0.30;99.90
29203;DHT22;16245;51.170;4.884;2023-02-15T04:17:20;0.30;99.90
29203;DHT22;16245;51.170;4.884;2023-02-15T04:19:45;0.30;99.90
29203;DHT22;16245;51.170;4.884;2023-02-15T04:22:30;0.20;99.90
29203;DHT22;16245;51.170;4.884;2023-02-15T04:25:14;0.20;99.90
29203;DHT22;16245;51.170;4.884;2023-02-15T04:27:44;0.20;99.90
29203;DHT22;16245;51.170;4.884;2023-02-15T04:30:11;0.20;99.90
29203;DHT22;16245;51.170;4.884;2023-02-15T04:32:37;0.20;99.90
29203;DHT22;16245;51.170;4.884;2023-02-15T04:35:04;0.10;99.90
29203;DHT22;16245;51.170;4.884;2023-02-15T04:37:31;0.10;99.90
29203;DHT22;16245;51.170;4.884;2023-02-15T04:39:57;0.10;99.90
29203;DHT22;16245;51.170;4.884;2023-02-15T04:42:24;0.20;99.90
29203;DHT22;16245;51.170;4.884;2023-02-15T04:44:51;0.20;99.90
29203;DHT22;16245;51.170;4.884;2023-02-15T04:47:17;0.20;99.90
29203;DHT22;16245;51.170;4.884;2023-02-15T04:49:42;0.10;99.90
29203;DHT22;16245;51.170;4.884;2023-02-15T04:52:08;0.20;99.90
29203;DHT22;16245;51.170;4.884;2023-02-15T04:54:34;0.10;99.90
29203;DHT22;16245;51.170;4.884;2023-02-15T04:56:59;0.10;99.90
29203;DHT22;16245;51.170;4.884;2023-02-15T04:59:25;0.10;99.90
29203;DHT22;16245;51.170;4.884;2023-02-15T05:01:51;0.10;99.90
29203;DHT22;16245;51.170;4.884;2023-02-15T05:04:16;0.00;99.90
29203;DHT22;16245;51.170;4.884;2023-02-15T05:06:42;0.00;99.90
29203;DHT22;16245;51.170;4.884;2023-02-15T05:09:07;0.00;99.90
29203;DHT22;16245;51.170;4.884;2023-02-15T05:11:33;0.10;99.90
29203;DHT22;16245;51.170;4.884;2023-02-15T05:13:59;0.00;99.90
29203;DHT22;16245;51.170;4.884;2023-02-15T05:16:24;0.10;99.90
29203;DHT22;16245;51.170;4.884;2023-02-15T05:18:52;0.00;99.90
29203;DHT22;16245;51.170;4.884;2023-02-15T05:21:18;0.00;99.90
29203;DHT22;16245;51.170;4.884;2023-02-15T05:23:44;-0.10;99.90
29203;DHT22;16245;51.170;4.884;2023-02-15T05:26:12;-0.10;99.90
29203;DHT22;16245;51.170;4.884;2023-02-15T05:28:56;-0.10;99.90
29203;DHT22;16245;51.170;4.884;2023-02-15T05:31:22;-0.10;99.90
29203;DHT22;16245;51.170;4.884;2023-02-15T05:33:48;-0.20;99.90
29203;DHT22;16245;51.170;4.884;2023-02-15T05:36:13;-0.20;99.90
29203;DHT22;16245;51.170;4.884;2023-02-15T05:38:39;-0.20;99.90
29203;DHT22;16245;51.170;4.884;2023-02-15T05:41:10;-0.20;99.90
29203;DHT22;16245;51.170;4.884;2023-02-15T05:43:36;-0.30;99.90
29203;DHT22;16245;51.170;4.884;2023-02-15T05:46:03;-0.30;99.90
29203;DHT22;16245;51.170;4.884;2023-02-15T05:48:29;-0.30;99.90
29203;DHT22;16245;51.170;4.884;2023-02-15T05:53:27;-0.20;99.90
29203;DHT22;16245;51.170;4.884;2023-02-15T05:55:53;-0.20;99.90
29203;DHT22;16245;51.170;4.884;2023-02-15T05:58:27;-0.20;99.90
29203;DHT22;16245;51.170;4.884;2023-02-15T06:00:53;-0.20;99.90
29203;DHT22;16245;51.170;4.884;2023-02-15T06:03:19;-0.30;99.90
29203;DHT22;16245;51.170;4.884;2023-02-15T06:05:44;-0.30;99.90
29203;DHT22;16245;51.170;4.884;2023-02-15T06:08:10;-0.30;99.90
29203;DHT22;16245;51.170;4.884;2023-02-15T06:10:36;-0.30;99.90
29203;DHT22;16245;51.170;4.884;2023-02-15T06:13:02;-0.30;99.90
29203;DHT22;16245;51.170;4.884;2023-02-15T06:15:27;-0.40;99.90
29203;DHT22;16245;51.170;4.884;2023-02-15T06:17:53;-0.30;99.90
29203;DHT22;16245;51.170;4.884;2023-02-15T06:20:19;-0.30;99.90
29203;DHT22;16245;51.170;4.884;2023-02-15T06:22:44;-0.40;99.90
29203;DHT22;16245;51.170;4.884;2023-02-15T06:25:10;-0.40;99.90
29203;DHT22;16245;51.170;4.884;2023-02-15T06:27:37;-0.40;99.90
29203;DHT22;16245;51.170;4.884;2023-02-15T06:30:04;-0.40;99.90
29203;DHT22;16245;51.170;4.884;2023-02-15T06:32:31;-0.40;99.90
29203;DHT22;16245;51.170;4.884;2023-02-15T06:34:57;-0.50;99.90
29203;DHT22;16245;51.170;4.884;2023-02-15T06:37:22;-0.40;99.90
29203;DHT22;16245;51.170;4.884;2023-02-15T06:39:48;-0.50;99.90
29203;DHT22;16245;51.170;4.884;2023-02-15T06:42:14;-0.40;99.90
29203;DHT22;16245;51.170;4.884;2023-02-15T06:44:39;-0.40;99.90
29203;DHT22;16245;51.170;4.884;2023-02-15T06:47:05;-0.30;99.90
29203;DHT22;16245;51.170;4.884;2023-02-15T06:49:31;-0.40;99.90
29203;DHT22;16245;51.170;4.884;2023-02-15T06:51:56;-0.40;99.90
29203;DHT22;16245;51.170;4.884;2023-02-15T06:54:22;-0.40;99.90
29203;DHT22;16245;51.170;4.884;2023-02-15T06:56:48;-0.40;99.90
29203;DHT22;16245;51.170;4.884;2023-02-15T06:59:13;-0.40;99.90
29203;DHT22;16245;51.170;4.884;2023-02-15T07:01:39;-0.40;99.90
29203;DHT22;16245;51.170;4.884;2023-02-15T07:04:05;-0.40;99.90
29203;DHT22;16245;51.170;4.884;2023-02-15T07:06:32;-0.40;99.90
29203;DHT22;16245;51.170;4.884;2023-02-15T07:08:58;-0.30;99.90
29203;DHT22;16245;51.170;4.884;2023-02-15T07:11:24;-0.30;99.90
29203;DHT22;16245;51.170;4.884;2023-02-15T07:14:08;-0.20;99.90
29203;DHT22;16245;51.170;4.884;2023-02-15T07:16:34;-0.20;99.90
29203;DHT22;16245;51.170;4.884;2023-02-15T07:18:59;-0.10;99.90
29203;DHT22;16245;51.170;4.884;2023-02-15T07:21:25;0.00;99.90
29203;DHT22;16245;51.170;4.884;2023-02-15T07:23:51;0.00;99.90
29203;DHT22;16245;51.170;4.884;2023-02-15T07:26:16;0.10;99.90
29203;DHT22;16245;51.170;4.884;2023-02-15T07:28:42;0.20;99.90
29203;DHT22;16245;51.170;4.884;2023-02-15T07:31:08;0.20;99.90
29203;DHT22;16245;51.170;4.884;2023-02-15T07:33:34;0.30;99.90
29203;DHT22;16245;51.170;4.884;2023-02-15T07:36:02;0.40;99.90
29203;DHT22;16245;51.170;4.884;2023-02-15T07:38:31;0.60;99.90
29203;DHT22;16245;51.170;4.884;2023-02-15T07:41:01;0.70;99.90
29203;DHT22;16245;51.170;4.884;2023-02-15T07:43:28;0.80;99.90
29203;DHT22;16245;51.170;4.884;2023-02-15T07:45:58;0.90;99.90
29203;DHT22;16245;51.170;4.884;2023-02-15T07:48:24;1.00;99.90
29203;DHT22;16245;51.170;4.884;2023-02-15T07:50:49;1.20;99.90
29203;DHT22;16245;51.170;4.884;2023-02-15T07:53:15;1.40;99.90
29203;DHT22;16245;51.170;4.884;2023-02-15T07:55:41;1.50;99.90
29203;DHT22;16245;51.170;4.884;2023-02-15T07:58:06;1.70;99.90
29203;DHT22;16245;51.170;4.884;2023-02-15T08:00:32;1.80;99.90
29203;DHT22;16245;51.170;4.884;2023-02-15T08:03:17;2.00;99.90
29203;DHT22;16245;51.170;4.884;2023-02-15T08:05:44;2.20;99.90
29203;DHT22;16245;51.170;4.884;2023-02-15T08:08:12;2.30;99.90
29203;DHT22;16245;51.170;4.884;2023-02-15T08:13:50;2.80;99.90
29203;DHT22;16245;51.170;4.884;2023-02-15T08:16:37;3.00;99.90
29203;DHT22;16245;51.170;4.884;2023-02-15T08:19:07;3.30;99.90
29203;DHT22;16245;51.170;4.884;2023-02-15T08:21:35;3.60;99.90
29203;DHT22;16245;51.170;4.884;2023-02-15T08:24:01;3.90;99.90
29203;DHT22;16245;51.170;4.884;2023-02-15T08:26:28;4.40;99.90
29203;DHT22;16245;51.170;4.884;2023-02-15T08:28:54;5.00;99.90
29203;DHT22;16245;51.170;4.884;2023-02-15T08:31:20;6.10;99.90
29203;DHT22;16245;51.170;4.884;2023-02-15T08:33:47;7.20;99.90
29203;DHT22;16245;51.170;4.884;2023-02-15T08:36:19;8.20;99.90
29203;DHT22;16245;51.170;4.884;2023-02-15T08:38:45;9.30;99.90
29203;DHT22;16245;51.170;4.884;2023-02-15T08:43:37;10.80;99.90
29203;DHT22;16245;51.170;4.884;2023-02-15T08:46:03;11.60;99.90
29203;DHT22;16245;51.170;4.884;2023-02-15T08:48:29;12.10;99.90
29203;DHT22;16245;51.170;4.884;2023-02-15T08:50:54;12.70;99.90
29203;DHT22;16245;51.170;4.884;2023-02-15T08:53:20;12.80;99.90
29203;DHT22;16245;51.170;4.884;2023-02-15T08:55:54;12.80;99.90
29203;DHT22;16245;51.170;4.884;2023-02-15T08:58:20;13.10;99.90
29203;DHT22;16245;51.170;4.884;2023-02-15T09:00:45;13.30;99.90
29203;DHT22;16245;51.170;4.884;2023-02-15T09:03:11;13.90;99.90
29203;DHT22;16245;51.170;4.884;2023-02-15T09:05:37;14.50;99.90
29203;DHT22;16245;51.170;4.884;2023-02-15T09:08:02;15.10;99.90
29203;DHT22;16245;51.170;4.884;2023-02-15T09:10:28;15.30;99.90
29203;DHT22;16245;51.170;4.884;2023-02-15T09:12:53;15.70;99.90
29203;DHT22;16245;51.170;4.884;2023-02-15T09:15:19;16.10;99.90
29203;DHT22;16245;51.170;4.884;2023-02-15T09:17:45;16.20;99.90
29203;DHT22;16245;51.170;4.884;2023-02-15T09:20:10;16.20;99.90
29203;DHT22;16245;51.170;4.884;2023-02-15T09:22:36;16.40;99.90
29203;DHT22;16245;51.170;4.884;2023-02-15T09:25:02;16.40;99.90
29203;DHT22;16245;51.170;4.884;2023-02-15T09:27:29;16.20;99.90
29203;DHT22;16245;51.170;4.884;2023-02-15T09:29:54;16.30;99.90
29203;DHT22;16245;51.170;4.884;2023-02-15T09:32:20;16.40;99.90
29203;DHT22;16245;51.170;4.884;2023-02-15T09:34:47;16.90;99.90
29203;DHT22;16245;51.170;4.884;2023-02-15T09:37:13;16.60;99.90
29203;DHT22;16245;51.170;4.884;2023-02-15T09:39:41;16.80;99.90
29203;DHT22;16245;51.170;4.884;2023-02-15T09:45:23;15.80;99.90
29203;DHT22;16245;51.170;4.884;2023-02-15T09:56:13;16.70;99.90
29203;DHT22;16245;51.170;4.884;2023-02-15T10:06:28;18.70;99.90
29203;DHT22;16245;51.170;4.884;2023-02-15T10:16:56;19.90;95.30
29203;DHT22;16245;51.170;4.884;2023-02-15T10:22:05;18.80;96.30
29203;DHT22;16245;51.170;4.884;2023-02-15T10:27:15;18.70;95.80
29203;DHT22;16245;51.170;4.884;2023-02-15T10:30:09;18.70;95.30
29203;DHT22;16245;51.170;4.884;2023-02-15T10:33:01;18.80;95.30
29203;DHT22;16245;51.170;4.884;2023-02-15T10:38:20;18.20;95.20
29203;DHT22;16245;51.170;4.884;2023-02-15T10:44:06;18.00;95.70
29203;DHT22;16245;51.170;4.884;2023-02-15T10:49:49;17.60;95.90
29203;DHT22;16245;51.170;4.884;2023-02-15T11:06:05;17.90;95.60
29203;DHT22;16245;51.170;4.884;2023-02-15T11:08:40;18.20;95.50
29203;DHT22;16245;51.170;4.884;2023-02-15T11:11:10;18.50;95.50
29203;DHT22;16245;51.170;4.884;2023-02-15T11:13:45;18.80;95.10
29203;DHT22;16245;51.170;4.884;2023-02-15T11:16:27;18.80;94.50
29203;DHT22;16245;51.170;4.884;2023-02-15T11:18:57;18.60;95.20
29203;DHT22;16245;51.170;4.884;2023-02-15T11:21:32;18.30;95.40
29203;DHT22;16245;51.170;4.884;2023-02-15T11:23:59;18.10;95.70
29203;DHT22;16245;51.170;4.884;2023-02-15T11:26:32;17.60;95.30
29203;DHT22;16245;51.170;4.884;2023-02-15T11:29:06;17.30;96.20
29203;DHT22;16245;51.170;4.884;2023-02-15T11:31:53;16.60;95.90
29203;DHT22;16245;51.170;4.884;2023-02-15T11:37:20;15.60;98.10
29203;DHT22;16245;51.170;4.884;2023-02-15T11:39:51;15.20;98.30
29203;DHT22;16245;51.170;4.884;2023-02-15T11:42:23;14.70;98.70
29203;DHT22;16245;51.170;4.884;2023-02-15T11:47:15;14.10;99.90
29203;DHT22;16245;51.170;4.884;2023-02-15T11:49:40;14.00;99.90
29203;DHT22;16245;51.170;4.884;2023-02-15T11:52:10;14.00;99.90
29203;DHT22;16245;51.170;4.884;2023-02-15T11:54:50;14.10;99.90
29203;DHT22;16245;51.170;4.884;2023-02-15T11:57:26;14.00;99.90
29203;DHT22;16245;51.170;4.884;2023-02-15T12:00:01;14.00;99.90
29203;DHT22;16245;51.170;4.884;2023-02-15T12:02:31;14.00;99.90
29203;DHT22;16245;51.170;4.884;2023-02-15T12:05:09;14.00;99.90
29203;DHT22;16245;51.170;4.884;2023-02-15T12:07:46;14.00;99.90
29203;DHT22;16245;51.170;4.884;2023-02-15T12:10:24;13.90;99.90
29203;DHT22;16245;51.170;4.884;2023-02-15T12:13:10;13.80;99.90
29203;DHT22;16245;51.170;4.884;2023-02-15T12:15:37;13.80;99.90
29203;DHT22;16245;51.170;4.884;2023-02-15T12:20:59;13.90;99.90
29203;DHT22;16245;51.170;4.884;2023-02-15T12:23:27;13.90;99.90
29203;DHT22;16245;51.170;4.884;2023-02-15T12:25:54;14.00;99.90
29203;DHT22;16245;51.170;4.884;2023-02-15T12:30:58;14.20;99.90
29203;DHT22;16245;51.170;4.884;2023-02-15T12:33:26;14.20;99.90
29203;DHT22;16245;51.170;4.884;2023-02-15T12:36:06;14.20;99.90
29203;DHT22;16245;51.170;4.884;2023-02-15T12:38:36;14.20;99.90
29203;DHT22;16245;51.170;4.884;2023-02-15T12:41:03;14.20;99.90
29203;DHT22;16245;51.170;4.884;2023-02-15T12:43:34;14.20;99.90
29203;DHT22;16245;51.170;4.884;2023-02-15T12:48:46;14.30;99.90
29203;DHT22;16245;51.170;4.884;2023-02-15T12:51:14;14.30;99.90
29203;DHT22;16245;51.170;4.884;2023-02-15T12:53:40;14.30;99.90
29203;DHT22;16245;51.170;4.884;2023-02-15T12:56:09;14.40;99.90
29203;DHT22;16245;51.170;4.884;2023-02-15T12:58:39;14.40;99.90
29203;DHT22;16245;51.170;4.884;2023-02-15T13:03:35;14.30;99.90
29203;DHT22;16245;51.170;4.884;2023-02-15T13:06:03;14.20;99.90
29203;DHT22;16245;51.170;4.884;2023-02-15T13:08:36;14.10;99.90
29203;DHT22;16245;51.170;4.884;2023-02-15T13:11:09;14.00;99.90
29203;DHT22;16245;51.170;4.884;2023-02-15T13:13:47;14.00;99.90
29203;DHT22;16245;51.170;4.884;2023-02-15T13:16:15;14.00;99.90
29203;DHT22;16245;51.170;4.884;2023-02-15T13:18:44;14.30;99.90
29203;DHT22;16245;51.170;4.884;2023-02-15T13:23:37;14.50;99.90
29203;DHT22;16245;51.170;4.884;2023-02-15T13:26:10;14.50;99.90
29203;DHT22;16245;51.170;4.884;2023-02-15T13:28:47;14.60;99.90
29203;DHT22;16245;51.170;4.884;2023-02-15T13:31:17;14.70;99.90
29203;DHT22;16245;51.170;4.884;2023-02-15T13:33:49;14.60;99.90
29203;DHT22;16245;51.170;4.884;2023-02-15T13:39:11;14.50;99.90
29203;DHT22;16245;51.170;4.884;2023-02-15T13:42:27;14.50;99.90
29203;DHT22;16245;51.170;4.884;2023-02-15T13:48:04;14.60;99.90
29203;DHT22;16245;51.170;4.884;2023-02-15T13:50:49;14.70;99.90
29203;DHT22;16245;51.170;4.884;2023-02-15T13:56:33;14.60;99.90
29203;DHT22;16245;51.170;4.884;2023-02-15T14:10:50;14.60;99.90
29203;DHT22;16245;51.170;4.884;2023-02-15T14:13:48;14.60;99.90
29203;DHT22;16245;51.170;4.884;2023-02-15T14:16:36;14.70;99.90
29203;DHT22;16245;51.170;4.884;2023-02-15T14:22:05;14.60;99.90
29203;DHT22;16245;51.170;4.884;2023-02-15T14:30:24;14.60;99.90
29203;DHT22;16245;51.170;4.884;2023-02-15T14:32:55;14.60;99.90
29203;DHT22;16245;51.170;4.884;2023-02-15T14:35:24;14.60;99.90
29203;DHT22;16245;51.170;4.884;2023-02-15T14:46:16;14.60;99.90
29203;DHT22;16245;51.170;4.884;2023-02-15T14:48:48;14.60;99.90
29203;DHT22;16245;51.170;4.884;2023-02-15T14:54:07;14.60;99.90
29203;DHT22;16245;51.170;4.884;2023-02-15T14:56:33;14.60;99.90
29203;DHT22;16245;51.170;4.884;2023-02-15T14:59:21;14.60;99.90
29203;DHT22;16245;51.170;4.884;2023-02-15T15:04:41;14.60;99.90
29203;DHT22;16245;51.170;4.884;2023-02-15T15:07:22;14.50;99.90
29203;DHT22;16245;51.170;4.884;2023-02-15T15:10:02;14.40;99.90
29203;DHT22;16245;51.170;4.884;2023-02-15T15:15:01;14.30;99.90
29203;DHT22;16245;51.170;4.884;2023-02-15T15:20:05;14.00;99.90
29203;DHT22;16245;51.170;4.884;2023-02-15T15:22:35;14.00;99.90
29203;DHT22;16245;51.170;4.884;2023-02-15T15:25:10;13.90;99.90
29203;DHT22;16245;51.170;4.884;2023-02-15T15:30:06;13.80;99.90
29203;DHT22;16245;51.170;4.884;2023-02-15T15:38:42;13.90;99.90
29203;DHT22;16245;51.170;4.884;2023-02-15T15:46:57;13.80;99.90
29203;DHT22;16245;51.170;4.884;2023-02-15T15:49:32;13.80;99.90
29203;DHT22;16245;51.170;4.884;2023-02-15T15:52:18;13.70;99.90
29203;DHT22;16245;51.170;4.884;2023-02-15T15:54:47;13.60;99.90
29203;DHT22;16245;51.170;4.884;2023-02-15T15:57:30;13.60;99.90
29203;DHT22;16245;51.170;4.884;2023-02-15T15:59:57;13.50;99.90
29203;DHT22;16245;51.170;4.884;2023-02-15T16:02:25;13.40;99.90
29203;DHT22;16245;51.170;4.884;2023-02-15T16:04:51;13.30;99.90
29203;DHT22;16245;51.170;4.884;2023-02-15T16:10:00;13.30;99.90
29203;DHT22;16245;51.170;4.884;2023-02-15T16:12:27;13.20;99.90
29203;DHT22;16245;51.170;4.884;2023-02-15T16:14:55;13.10;99.90
29203;DHT22;16245;51.170;4.884;2023-02-15T16:17:26;13.10;99.90
29203;DHT22;16245;51.170;4.884;2023-02-15T16:19:58;13.00;99.90
29203;DHT22;16245;51.170;4.884;2023-02-15T16:22:26;12.90;99.90
29203;DHT22;16245;51.170;4.884;2023-02-15T16:27:45;12.70;99.90
29203;DHT22;16245;51.170;4.884;2023-02-15T16:30:32;12.60;99.90
29203;DHT22;16245;51.170;4.884;2023-02-15T16:33:09;12.60;99.90
29203;DHT22;16245;51.170;4.884;2023-02-15T16:35:39;12.60;99.90
29203;DHT22;16245;51.170;4.884;2023-02-15T16:38:08;12.50;99.90
29203;DHT22;16245;51.170;4.884;2023-02-15T16:40:53;12.40;99.90
29203;DHT22;16245;51.170;4.884;2023-02-15T16:43:28;12.20;99.90
29203;DHT22;16245;51.170;4.884;2023-02-15T16:46:03;12.10;99.90
29203;DHT22;16245;51.170;4.884;2023-02-15T16:48:32;11.90;99.90
29203;DHT22;16245;51.170;4.884;2023-02-15T16:50:59;11.80;99.90
29203;DHT22;16245;51.170;4.884;2023-02-15T16:53:27;11.70;99.90
29203;DHT22;16245;51.170;4.884;2023-02-15T16:56:04;11.50;99.90
29203;DHT22;16245;51.170;4.884;2023-02-15T16:58:36;11.50;99.90
29203;DHT22;16245;51.170;4.884;2023-02-15T17:01:06;11.40;99.90
29203;DHT22;16245;51.170;4.884;2023-02-15T17:03:32;11.30;99.90
29203;DHT22;16245;51.170;4.884;2023-02-15T17:06:00;11.30;99.90
29203;DHT22;16245;51.170;4.884;2023-02-15T17:08:34;11.10;99.90
29203;DHT22;16245;51.170;4.884;2023-02-15T17:11:08;11.00;99.90
29203;DHT22;16245;51.170;4.884;2023-02-15T17:13:35;10.90;99.90
29203;DHT22;16245;51.170;4.884;2023-02-15T17:21:00;10.50;99.90
29203;DHT22;16245;51.170;4.884;2023-02-15T17:23:39;10.40;99.90
29203;DHT22;16245;51.170;4.884;2023-02-15T17:26:20;10.30;99.90
29203;DHT22;16245;51.170;4.884;2023-02-15T17:28:54;10.20;99.90
29203;DHT22;16245;51.170;4.884;2023-02-15T17:31:25;10.10;99.90
29203;DHT22;16245;51.170;4.884;2023-02-15T17:33:54;10.10;99.90
29203;DHT22;16245;51.170;4.884;2023-02-15T17:36:23;10.10;99.90
29203;DHT22;16245;51.170;4.884;2023-02-15T17:41:25;10.00;99.90
29203;DHT22;16245;51.170;4.884;2023-02-15T17:43:51;9.70;99.90
29203;DHT22;16245;51.170;4.884;2023-02-15T17:46:17;9.60;99.90
29203;DHT22;16245;51.170;4.884;2023-02-15T17:48:48;9.40;99.90
29203;DHT22;16245;51.170;4.884;2023-02-15T17:51:15;9.30;99.90
29203;DHT22;16245;51.170;4.884;2023-02-15T17:53:42;9.20;99.90
29203;DHT22;16245;51.170;4.884;2023-02-15T17:56:35;9.10;99.90
29203;DHT22;16245;51.170;4.884;2023-02-15T17:59:01;9.20;99.90
29203;DHT22;16245;51.170;4.884;2023-02-15T18:01:27;9.10;99.90
29203;DHT22;16245;51.170;4.884;2023-02-15T18:04:12;9.10;99.90
29203;DHT22;16245;51.170;4.884;2023-02-15T18:06:57;8.80;99.90
29203;DHT22;16245;51.170;4.884;2023-02-15T18:09:41;8.70;99.90
29203;DHT22;16245;51.170;4.884;2023-02-15T18:12:31;8.50;99.90
29203;DHT22;16245;51.170;4.884;2023-02-15T18:14:58;8.40;99.90
29203;DHT22;16245;51.170;4.884;2023-02-15T18:17:36;8.40;99.90
29203;DHT22;16245;51.170;4.884;2023-02-15T18:20:05;8.30;99.90
29203;DHT22;16245;51.170;4.884;2023-02-15T18:22:34;8.20;99.90
29203;DHT22;16245;51.170;4.884;2023-02-15T18:25:01;8.20;99.90
29203;DHT22;16245;51.170;4.884;2023-02-15T18:27:26;8.20;99.90
29203;DHT22;16245;51.170;4.884;2023-02-15T18:29:52;8.20;99.90
29203;DHT22;16245;51.170;4.884;2023-02-15T18:32:23;8.10;99.90
29203;DHT22;16245;51.170;4.884;2023-02-15T18:34:52;8.20;99.90
29203;DHT22;16245;51.170;4.884;2023-02-15T18:37:21;8.10;99.90
29203;DHT22;16245;51.170;4.884;2023-02-15T18:39:49;8.00;99.90
29203;DHT22;16245;51.170;4.884;2023-02-15T18:42:24;8.00;99.90
29203;DHT22;16245;51.170;4.884;2023-02-15T18:45:00;7.90;99.90
29203;DHT22;16245;51.170;4.884;2023-02-15T18:47:27;7.80;99.90
29203;DHT22;16245;51.170;4.884;2023-02-15T18:49:54;7.80;99.90
29203;DHT22;16245;51.170;4.884;2023-02-15T18:52:22;7.90;99.90
29203;DHT22;16245;51.170;4.884;2023-02-15T18:55:02;7.90;99.90
29203;DHT22;16245;51.170;4.884;2023-02-15T18:57:29;8.00;99.90
29203;DHT22;16245;51.170;4.884;2023-02-15T18:59:55;8.20;99.90
29203;DHT22;16245;51.170;4.884;2023-02-15T19:02:20;8.20;99.90
29203;DHT22;16245;51.170;4.884;2023-02-15T19:04:46;8.40;99.90
29203;DHT22;16245;51.170;4.884;2023-02-15T19:07:21;8.40;99.90
29203;DHT22;16245;51.170;4.884;2023-02-15T19:09:51;8.50;99.90